• Join FlightAware (Why Join?)
  • Login
  • US Flag 
05:06PM EDT


 

Airport Tracker/Info


-or-


 

Live Flight TrackerFlight Track Log ✈ N10EG ✈ 20-Oct-2013 ✈ KMAF - 89TE

Flight Track Log - Related Links

Times and Time Zones

All times are in EDT time to prevent confusion due to time zone crossing. See the N10EG flight status page for this flight to view local times or setup timezone preferences in your user account.

Time Position Orientation Groundspeed Altitude Reporting Facility
EDT Latitude Longitude Course Direction KTS MPH feet Rate Location/Type
06:59PM 31.8589 -102.1983 178° South 204 235 6,600  Level Albuquerque Center
07:00PM 31.8103 -102.2247 205° Southwest 194 223 9,500 2,580 Climbing Albuquerque Center
07:01PM 31.7561 -102.2517 203° Southwest 196 226 11,900 2,220 Climbing Albuquerque Center
07:02PM 31.6908 -102.2828 202° Southwest 209 241 14,200 1,680 Climbing Albuquerque Center
07:03PM 31.6286 -102.3103 201° Southwest 231 266 15,400 780 Climbing Albuquerque Center
07:04PM 31.8722 -102.2423 207° Southwest  Level Estimated
07:05PM 31.5539 -102.3456 202° Southwest 281 323 15,900  Level Albuquerque Center
07:06PM 31.4783 -102.3817 202° Southwest 303 349 16,000  Climbing Albuquerque Center
07:07PM 31.3953 -102.4239 203° Southwest 321 369 16,000  Level Albuquerque Center
07:08PM 31.3139 -102.4686 205° Southwest 323 372 16,000 -60 Level Albuquerque Center
07:09PM 31.2150 -102.5228 205° Southwest 325 374 15,900 -60 Descending Albuquerque Center
07:10PM 31.1397 -102.5647 205° Southwest 314 361 15,900  Level Albuquerque Center
07:11PM 31.0639 -102.6058 205° Southwest 304 350 16,000  Climbing Albuquerque Center
07:12PM 31.0000 -102.6608 216° Southwest 294 338 16,000  Level Albuquerque Center
07:13PM 30.9450 -102.7317 228° Southwest 293 337 16,000  Level Albuquerque Center
07:14PM 30.8783 -102.8131 226° Southwest 290 334 16,000  Level Albuquerque Center
07:15PM 30.8131 -102.8703 217° Southwest 291 335 16,000  Level Albuquerque Center
07:16PM 30.7467 -102.9250 215° Southwest 292 336 16,000  Level Albuquerque Center
07:17PM 30.6747 -102.9700 208° Southwest 293 337 16,000 -660 Level Albuquerque Center
07:18PM 30.6011 -103.0111 206° Southwest 294 338 14,700 -1,620 Descending Albuquerque Center
07:19PM 30.5258 -103.0461 202° Southwest 293 337 12,700 -1,320 Descending Albuquerque Center
07:20PM 30.4533 -103.0850 205° Southwest 289 333 12,000 -360 Descending Albuquerque Center
07:21PM 30.3656 -103.1283 203° Southwest 287 330 12,000  Level Albuquerque Center
07:22PM 30.2936 -103.1656 204° Southwest 285 328 12,000  Level Albuquerque Center
07:23PM 30.2217 -103.2008 203° Southwest 282 325 12,000  Level Albuquerque Center
07:24PM 30.1417 -103.2422 204° Southwest 282 325 12,000  Level Albuquerque Center